Time;durP1;ratioP1;P1;durP2;ratioP2;P2;SDS_P1;SDS_P2;PMS_P1;PMS_P2;Temp;Humidity;BMP_temperature;BMP_pressure;BME280_temperature;BME280_humidity;BME280_pressure;Samples;Min_cycle;Max_cycle;Signal;HPM_P1;HPM_P2
2023/04/10 06:04:52;;;;;;;52.37;9.77;;;5.90;99.90;;;;;;5360364;23;20233;-91
2023/04/10 06:07:19;;;;;;;65.63;10.93;;;6.10;99.90;;;;;;4916781;29;20201;-89
2023/04/10 06:09:45;;;;;;;77.47;11.97;;;6.30;99.90;;;;;;4904228;29;20200;-91
2023/04/10 06:12:12;;;;;;;80.27;12.20;;;6.50;99.90;;;;;;4900435;29;20216;-90
2023/04/10 06:14:39;;;;;;;110.00;15.83;;;6.70;99.90;;;;;;4911086;29;20204;-90
2023/04/10 06:17:06;;;;;;;80.80;16.03;;;6.90;99.90;;;;;;4904921;29;20305;-90
2023/04/10 06:19:32;;;;;;;97.10;17.53;;;7.20;99.90;;;;;;4902213;29;20198;-90
2023/04/10 06:22:01;;;;;;;56.30;11.37;;;7.40;99.90;;;;;;4900346;29;20211;-89
2023/04/10 06:24:27;;;;;;;69.40;13.13;;;7.60;99.90;;;;;;4912926;29;20204;-89
2023/04/10 06:26:55;;;;;;;82.50;13.17;;;7.80;99.90;;;;;;4915247;29;20287;-89
2023/04/10 06:29:23;;;;;;;66.57;14.20;;;8.00;57.80;;;;;;4903825;29;20280;-91
2023/04/10 06:31:50;;;;;;;96.90;19.67;;;8.10;1.00;;;;;;4899705;29;20221;-89
2023/04/10 06:34:17;;;;;;;108.70;18.37;;;8.30;1.00;;;;;;4917437;29;20228;-90
2023/04/10 06:36:44;;;;;;;136.17;25.07;;;8.50;1.00;;;;;;4908111;29;20565;-90
2023/04/10 06:39:12;;;;;;;123.20;26.27;;;8.50;1.00;;;;;;4914422;29;20202;-90
2023/04/10 06:41:39;;;;;;;110.67;24.17;;;8.60;1.00;;;;;;4909636;29;20655;-89
2023/04/10 06:44:06;;;;;;;152.73;40.07;;;8.80;1.00;;;;;;4912966;29;20680;-91
2023/04/10 06:46:33;;;;;;;127.70;35.87;;;9.00;1.00;;;;;;4914882;29;20202;-90
2023/04/10 06:48:59;;;;;;;117.73;25.37;;;9.10;1.00;;;;;;4909729;29;20191;-90
2023/04/10 06:51:26;;;;;;;71.97;12.07;;;9.30;99.90;;;;;;4907236;29;20218;-92
2023/04/10 06:53:53;;;;;;;64.00;11.40;;;9.40;99.90;;;;;;4915773;29;20215;-93
2023/04/10 06:56:21;;;;;;;98.30;13.57;;;9.50;99.90;;;;;;4918597;29;20204;-92
2023/04/10 06:58:48;;;;;;;69.03;11.30;;;9.60;99.90;;;;;;4913215;29;20701;-92
2023/04/10 07:01:16;;;;;;;78.73;12.03;;;9.70;99.90;;;;;;4900657;29;20216;-92
2023/04/10 07:03:43;;;;;;;47.93;11.53;;;9.90;99.90;;;;;;4912116;29;20287;-90
2023/04/10 07:06:11;;;;;;;41.63;13.57;;;10.10;99.90;;;;;;4918678;29;20200;-91
2023/04/10 07:08:37;;;;;;;33.93;14.40;;;10.30;99.90;;;;;;4918279;29;20212;-92
2023/04/10 07:11:04;;;;;;;24.83;13.07;;;10.50;99.90;;;;;;4913289;29;20209;-91
2023/04/10 07:13:34;;;;;;;36.20;15.50;;;10.70;72.30;;;;;;4918410;29;20273;-91
2023/04/10 07:16:01;;;;;;;62.17;13.53;;;10.90;1.00;;;;;;4913573;29;20196;-92
2023/04/10 07:18:27;;;;;;;56.37;13.93;;;11.00;1.00;;;;;;4909682;29;20214;-92
2023/04/10 07:20:54;;;;;;;100.00;16.17;;;11.10;1.00;;;;;;4912296;29;20575;-92
2023/04/10 07:23:21;;;;;;;39.50;15.70;;;11.20;1.00;;;;;;4918358;29;20199;-91
2023/04/10 07:25:48;;;;;;;29.73;11.10;;;11.30;99.90;;;;;;4918460;29;20272;-93
2023/04/10 07:28:15;;;;;;;50.57;13.50;;;11.30;99.90;;;;;;4918502;29;20207;-92
2023/04/10 07:30:43;;;;;;;46.17;12.63;;;11.50;99.90;;;;;;4901580;29;20210;-91
2023/04/10 07:33:10;;;;;;;36.47;13.00;;;11.50;18.50;;;;;;4898581;29;20227;-91
2023/04/10 07:35:36;;;;;;;34.93;14.70;;;11.50;93.70;;;;;;4917623;29;20225;-92
2023/04/10 07:38:03;;;;;;;33.67;13.13;;;11.60;99.90;;;;;;4915833;29;20205;-91
2023/04/10 07:40:30;;;;;;;22.03;11.50;;;11.70;19.00;;;;;;4909842;29;20196;-93
2023/04/10 07:42:57;;;;;;;27.17;17.93;;;11.90;1.00;;;;;;4917885;29;20204;-92
2023/04/10 07:45:24;;;;;;;24.57;16.37;;;12.10;1.00;;;;;;4912884;29;20198;-91
2023/04/10 07:47:52;;;;;;;19.27;13.30;;;12.20;1.00;;;;;;4914021;29;20252;-92
2023/04/10 07:50:19;;;;;;;23.70;12.27;;;12.30;1.00;;;;;;4908928;29;20200;-92
2023/04/10 07:52:46;;;;;;;39.67;12.27;;;12.40;1.00;;;;;;4903629;29;20217;-93
2023/04/10 07:55:13;;;;;;;29.67;13.20;;;12.40;99.90;;;;;;4913793;29;20192;-93
2023/04/10 07:57:39;;;;;;;18.17;12.57;;;12.30;99.90;;;;;;4918450;29;20201;-92
2023/04/10 08:00:07;;;;;;;18.53;13.57;;;12.30;99.90;;;;;;4915091;29;20202;-93
2023/04/10 08:02:34;;;;;;;19.13;14.20;;;12.40;99.90;;;;;;4918015;29;20572;-93
2023/04/10 08:05:02;;;;;;;20.27;13.13;;;12.50;99.90;;;;;;4917983;29;20261;-94
2023/04/10 08:07:30;;;;;;;17.47;12.30;;;12.50;99.90;;;;;;4904370;29;20191;-93
2023/04/10 08:09:56;;;;;;;18.73;12.80;;;12.50;99.90;;;;;;4918362;29;20205;-93
2023/04/10 08:12:23;;;;;;;19.53;13.03;;;12.30;99.90;;;;;;4916685;29;20210;-94
2023/04/10 08:14:51;;;;;;;20.60;14.33;;;12.10;99.90;;;;;;4907802;29;20672;-93
2023/04/10 08:17:18;;;;;;;20.90;14.40;;;12.00;99.90;;;;;;4906888;29;20200;-93
2023/04/10 08:19:44;;;;;;;21.40;14.13;;;11.90;1.00;;;;;;4916371;29;20207;-92
2023/04/10 08:22:12;;;;;;;23.90;15.07;;;11.90;1.00;;;;;;4899742;29;20205;-93
2023/04/10 08:24:39;;;;;;;21.77;14.60;;;12.00;1.00;;;;;;4913542;29;20207;-93
2023/04/10 08:27:06;;;;;;;20.07;14.10;;;12.00;1.00;;;;;;4917853;29;20217;-94
2023/04/10 08:29:33;;;;;;;24.03;16.00;;;12.00;1.00;;;;;;4912813;29;20212;-93
2023/04/10 08:32:00;;;;;;;22.17;15.27;;;12.00;1.00;;;;;;4914504;29;20218;-93
2023/04/10 08:34:27;;;;;;;22.67;14.67;;;11.90;1.00;;;;;;4899505;29;20218;-94
2023/04/10 08:36:54;;;;;;;20.07;13.87;;;12.00;1.00;;;;;;4908492;29;20208;-94
2023/04/10 08:39:22;;;;;;;19.53;14.00;;;12.00;1.00;;;;;;4917529;29;20205;-93
2023/04/10 08:41:49;;;;;;;23.87;14.83;;;11.90;1.00;;;;;;4908054;29;20205;-93
2023/04/10 08:44:16;;;;;;;23.67;15.33;;;11.90;1.00;;;;;;4902732;29;20202;-93
2023/04/10 08:46:44;;;;;;;23.43;16.30;;;11.90;1.00;;;;;;4917405;29;20292;-92
2023/04/10 08:49:17;;;;;;;25.30;16.07;;;11.90;1.00;;;;;;4905315;29;20289;-93
2023/04/10 08:51:51;;;;;;;24.13;16.57;;;12.00;1.00;;;;;;4901508;29;20209;-93
2023/04/10 08:54:23;;;;;;;25.17;16.43;;;12.10;1.00;;;;;;4918099;29;20216;-92
2023/04/10 08:56:54;;;;;;;27.43;16.70;;;12.20;1.00;;;;;;4917690;29;20202;-93
2023/04/10 08:59:21;;;;;;;24.57;17.47;;;12.20;1.00;;;;;;4906360;29;20244;-93
2023/04/10 09:01:49;;;;;;;26.47;18.00;;;12.20;1.00;;;;;;4914932;29;20204;-94
2023/04/10 09:04:16;;;;;;;27.67;18.50;;;12.20;1.00;;;;;;4920568;29;20601;-93
2023/04/10 09:06:43;;;;;;;27.03;17.60;;;12.20;99.90;;;;;;4921167;29;20201;-93
2023/04/10 09:09:10;;;;;;;27.90;19.30;;;12.30;99.90;;;;;;4920073;29;20195;-94
2023/04/10 09:12:01;;;;;;;24.87;18.43;;;12.40;1.00;;;;;;4921208;29;20206;-93
2023/04/10 09:14:29;;;;;;;34.30;22.97;;;12.50;1.00;;;;;;4921415;29;20207;-95
2023/04/10 09:17:14;;;;;;;25.23;16.63;;;12.60;1.00;;;;;;4921143;29;20203;-93
2023/04/10 09:19:41;;;;;;;29.10;24.17;;;12.60;1.00;;;;;;4918899;29;20207;-95
2023/04/10 09:22:08;;;;;;;27.10;18.50;;;12.60;1.00;;;;;;4902168;29;20200;-94
2023/04/10 09:24:39;;;;;;;27.27;17.60;;;12.60;1.00;;;;;;4916671;29;20273;-95
2023/04/10 09:27:07;;;;;;;25.33;17.27;;;12.70;1.00;;;;;;4920554;29;20201;-96
2023/04/10 09:29:47;;;;;;;23.77;16.03;;;12.80;1.00;;;;;;4920798;29;20207;-96
2023/04/10 09:32:34;;;;;;;26.40;18.17;;;12.90;1.00;;;;;;4921074;29;20226;-96
2023/04/10 09:35:00;;;;;;;23.07;17.20;;;12.90;1.00;;;;;;4921225;29;20214;-96
2023/04/10 09:37:31;;;;;;;27.13;17.13;;;13.10;1.00;;;;;;4916929;29;20210;-96
2023/04/10 09:39:59;;;;;;;22.57;16.30;;;13.10;1.00;;;;;;4914678;29;20201;-96
2023/04/10 09:42:32;;;;;;;24.37;17.80;;;13.20;1.00;;;;;;4922512;29;20198;-96
2023/04/10 09:45:00;;;;;;;22.43;17.50;;;13.30;1.00;;;;;;4928372;29;20204;-96
2023/04/10 09:47:27;;;;;;;31.47;23.43;;;13.40;1.00;;;;;;4927477;29;20205;-96
2023/04/10 09:49:55;;;;;;;23.90;16.73;;;13.40;1.00;;;;;;4924448;29;20743;-96
2023/04/10 09:52:25;;;;;;;23.70;18.53;;;13.50;99.90;;;;;;4928127;29;20229;-96
2023/04/10 09:54:52;;;;;;;25.83;17.87;;;13.60;99.90;;;;;;4927584;29;20204;-96
2023/04/10 09:57:20;;;;;;;22.63;17.17;;;13.70;99.90;;;;;;4930371;29;20207;-96
2023/04/10 09:59:51;;;;;;;23.30;17.23;;;13.70;99.90;;;;;;4939815;29;20223;-96
2023/04/10 10:02:18;;;;;;;24.07;18.03;;;13.70;99.90;;;;;;4937571;29;20229;-96
2023/04/10 10:04:47;;;;;;;21.83;16.53;;;13.80;99.90;;;;;;4936921;29;20232;-96
2023/04/10 10:07:15;;;;;;;22.97;16.50;;;13.90;99.90;;;;;;4929053;29;20197;-96
2023/04/10 10:09:43;;;;;;;22.50;17.30;;;14.00;20.80;;;;;;4918620;29;20203;-96
2023/04/10 10:12:11;;;;;;;22.10;17.00;;;14.00;99.90;;;;;;4930841;29;20209;-96
2023/04/10 10:14:47;;;;;;;22.00;17.40;;;14.00;99.90;;;;;;4931581;29;20587;-96
2023/04/10 10:17:20;;;;;;;20.83;16.43;;;14.10;91.30;;;;;;4927198;29;20217;-96
2023/04/10 10:19:53;;;;;;;24.83;17.33;;;14.20;1.00;;;;;;4926416;29;20649;-96
2023/04/10 10:22:23;;;;;;;22.20;17.40;;;14.30;1.00;;;;;;4929927;29;20204;-96
2023/04/10 10:24:55;;;;;;;24.07;17.83;;;;;;;;;;4921532;29;20263;-96
2023/04/10 10:27:23;;;;;;;21.80;16.30;;;14.50;1.00;;;;;;4930066;29;20200;-95
2023/04/10 10:29:54;;;;;;;25.07;17.93;;;14.60;1.00;;;;;;4924265;29;20203;-96
2023/04/10 10:32:23;;;;;;;21.43;16.73;;;14.60;1.00;;;;;;4920116;29;20184;-96
2023/04/10 10:34:52;;;;;;;22.33;15.83;;;14.70;1.00;;;;;;4917302;29;20212;-96
2023/04/10 10:37:21;;;;;;;29.80;23.60;;;14.80;1.00;;;;;;4917856;29;20191;-96
2023/04/10 10:39:58;;;;;;;20.90;16.07;;;14.80;1.00;;;;;;4931485;29;20218;-96
2023/04/10 10:42:32;;;;;;;21.48;16.30;;;14.90;1.00;;;;;;4929270;29;20227;-96
2023/04/10 10:45:09;;;;;;;20.42;15.65;;;15.00;1.00;;;;;;4933600;29;20207;-96
2023/04/10 10:47:44;;;;;;;21.08;15.52;;;15.10;99.90;;;;;;4925466;29;20281;-95
2023/04/10 10:50:11;;;;;;;20.55;15.57;;;15.20;99.90;;;;;;4927340;29;20281;-96
2023/04/10 10:52:44;;;;;;;17.98;14.10;;;15.10;99.90;;;;;;4931232;29;20273;-96
2023/04/10 10:55:31;;;;;;;19.98;14.05;;;15.20;99.90;;;;;;4928049;29;20256;-96
2023/04/10 10:58:00;;;;;;;16.77;12.93;;;15.30;99.90;;;;;;4931101;29;20201;-95
2023/04/10 11:00:51;;;;;;;17.80;13.68;;;15.40;99.90;;;;;;4925619;29;20201;-96
2023/04/10 11:03:29;;;;;;;18.02;13.68;;;15.40;99.90;;;;;;4931070;29;20232;-96
2023/04/10 11:05:58;;;;;;;15.80;12.82;;;15.50;99.90;;;;;;4935290;29;20237;-96
2023/04/10 11:08:44;;;;;;;16.08;12.93;;;15.60;99.90;;;;;;4938668;29;20252;-96
2023/04/10 11:11:16;;;;;;;13.88;11.55;;;15.70;99.90;;;;;;4939928;29;20216;-96
2023/04/10 11:14:16;;;;;;;16.00;11.80;;;15.70;15.50;;;;;;4939164;29;20217;-96
2023/04/10 11:16:49;;;;;;;15.00;11.98;;;15.70;74.90;;;;;;4937974;29;20176;-96
2023/04/10 11:19:19;;;;;;;15.25;12.77;;;15.90;1.00;;;;;;4923454;29;20233;-96
2023/04/10 11:22:06;;;;;;;18.15;13.48;;;15.90;1.00;;;;;;4914522;29;20201;-96
2023/04/10 11:24:53;;;;;;;16.20;12.73;;;16.00;25.10;;;;;;4925896;29;20190;-96
2023/04/10 11:27:45;;;;;;;17.85;14.52;;;16.10;4.80;;;;;;4938581;29;20200;-96
2023/04/10 11:30:32;;;;;;;16.23;13.50;;;16.20;1.00;;;;;;4935345;29;20259;-96
2023/04/10 11:33:00;;;;;;;18.10;15.25;;;16.30;1.00;;;;;;4928177;29;20219;-96
2023/04/10 11:35:30;;;;;;;19.02;14.25;;;16.20;1.00;;;;;;4931169;29;20207;-96
2023/04/10 11:38:15;;;;;;;17.63;12.65;;;16.30;1.00;;;;;;4922913;29;20197;-95
2023/04/10 11:40:56;;;;;;;15.35;12.02;;;16.40;1.00;;;;;;4918943;29;24235;-95
2023/04/10 11:43:23;;;;;;;15.18;11.95;;;16.60;1.00;;;;;;4918899;29;20201;-95
2023/04/10 11:45:49;;;;;;;15.95;12.75;;;16.80;1.00;;;;;;4918962;29;20725;-96
2023/04/10 11:48:17;;;;;;;14.98;12.98;;;16.90;1.00;;;;;;4918829;29;20218;-95
2023/04/10 11:50:45;;;;;;;17.73;14.13;;;17.00;1.00;;;;;;4918968;29;20575;-93
2023/04/10 11:53:20;;;;;;;13.82;11.88;;;16.90;1.00;;;;;;4918369;29;20711;-93
2023/04/10 11:55:47;;;;;;;15.07;12.48;;;17.00;1.00;;;;;;4916374;29;20741;-93
2023/04/10 11:58:25;;;;;;;16.20;11.90;;;17.20;1.00;;;;;;4899721;29;20206;-93
2023/04/10 12:01:02;;;;;;;24.85;18.08;;;17.30;1.00;;;;;;4917927;29;20202;-93
2023/04/10 12:03:37;;;;;;;19.10;11.98;;;17.30;1.00;;;;;;4918709;29;20673;-94
2023/04/10 12:06:07;;;;;;;14.80;11.60;;;17.50;1.00;;;;;;4918544;29;20182;-93
2023/04/10 12:08:35;;;;;;;10.93;9.30;;;17.90;1.00;;;;;;4918392;29;20261;-93
2023/04/10 12:11:03;;;;;;;12.80;10.85;;;18.20;1.00;;;;;;4915242;29;20204;-94
2023/04/10 12:13:30;;;;;;;15.48;12.35;;;18.40;1.00;;;;;;4899526;29;20698;-94
2023/04/10 12:16:02;;;;;;;15.45;12.20;;;18.50;1.00;;;;;;4918505;29;20212;-93
2023/04/10 12:18:29;;;;;;;17.77;12.85;;;18.40;1.00;;;;;;4918111;29;20244;-93
2023/04/10 12:20:57;;;;;;;21.38;17.27;;;18.30;1.00;;;;;;4918450;29;20206;-95
2023/04/10 12:23:27;;;;;;;15.52;12.02;;;18.30;1.00;;;;;;4918876;29;20673;-94
2023/04/10 12:26:09;;;;;;;13.85;10.70;;;18.40;1.00;;;;;;4921133;29;20213;-94
2023/04/10 12:28:36;;;;;;;13.48;11.23;;;18.60;1.00;;;;;;4924547;29;20209;-94
2023/04/10 12:31:03;;;;;;;13.40;10.95;;;18.80;1.00;;;;;;4924443;29;20201;-95
2023/04/10 12:33:30;;;;;;;15.40;10.20;;;18.80;1.00;;;;;;4924752;29;20226;-93
2023/04/10 12:35:57;;;;;;;12.98;9.57;;;18.90;1.00;;;;;;4924211;29;20205;-93
2023/04/10 12:38:39;;;;;;;11.85;9.02;;;18.90;1.00;;;;;;4924317;29;20201;-93
2023/04/10 12:41:08;;;;;;;11.40;9.70;;;18.80;1.00;;;;;;4924287;29;20681;-95
2023/04/10 12:43:36;;;;;;;11.93;9.10;;;18.80;1.00;;;;;;4924548;29;20197;-95
2023/04/10 12:46:04;;;;;;;10.23;7.88;;;18.80;99.90;;;;;;4924616;29;20206;-94
2023/04/10 12:48:31;;;;;;;12.23;9.85;;;18.70;1.00;;;;;;4915703;29;20200;-95
2023/04/10 12:50:57;;;;;;;11.13;9.68;;;18.70;99.90;;;;;;4917414;29;20219;-93
2023/04/10 12:53:25;;;;;;;11.35;9.27;;;18.80;99.90;;;;;;4924337;29;20224;-95
2023/04/10 12:56:05;;;;;;;11.27;8.77;;;18.70;99.90;;;;;;4905787;29;20207;-96
2023/04/10 12:58:32;;;;;;;14.43;11.00;;;18.60;99.90;;;;;;4905660;29;20198;-95
2023/04/10 13:01:03;;;;;;;13.20;9.98;;;18.50;99.90;;;;;;4917326;29;20228;-94
2023/04/10 13:03:30;;;;;;;11.30;8.07;;;18.40;99.90;;;;;;4924513;29;20197;-94
2023/04/10 13:05:57;;;;;;;13.02;10.50;;;18.40;99.90;;;;;;4924878;29;20208;-94
2023/04/10 13:08:24;;;;;;;11.20;9.57;;;18.40;99.90;;;;;;4924643;29;20202;-94
2023/04/10 13:10:51;;;;;;;10.35;8.82;;;18.50;99.90;;;;;;4924475;29;20205;-94
2023/04/10 13:13:19;;;;;;;10.35;8.65;;;18.50;99.90;;;;;;4924071;29;20650;-94
2023/04/10 13:15:46;;;;;;;15.18;10.02;;;18.40;99.90;;;;;;4924502;29;20211;-95
2023/04/10 13:18:13;;;;;;;8.00;6.88;;;18.50;99.90;;;;;;4911775;29;20250;-94
2023/04/10 13:20:41;;;;;;;9.07;7.55;;;18.60;99.90;;;;;;4915012;29;20296;-94
2023/04/10 13:23:08;;;;;;;9.85;7.90;;;18.70;99.90;;;;;;4924224;29;20206;-95
2023/04/10 13:25:39;;;;;;;11.18;9.00;;;18.70;99.90;;;;;;4924222;29;20260;-95
2023/04/10 13:28:09;;;;;;;9.15;7.90;;;18.70;99.90;;;;;;4924348;29;20217;-95
2023/04/10 13:30:39;;;;;;;10.98;8.90;;;18.80;99.90;;;;;;4924341;29;20202;-94
2023/04/10 13:33:06;;;;;;;12.35;8.75;;;18.80;99.90;;;;;;4923766;29;20208;-95
2023/04/10 13:35:33;;;;;;;13.50;7.90;;;18.80;99.90;;;;;;4924181;29;20201;-95
2023/04/10 13:38:00;;;;;;;9.85;7.85;;;18.80;99.90;;;;;;4921722;29;20209;-95
2023/04/10 13:40:27;;;;;;;11.95;8.93;;;18.80;99.90;;;;;;4921053;29;20613;-95
2023/04/10 13:42:55;;;;;;;11.50;7.75;;;18.80;99.90;;;;;;4920938;29;20197;-94
2023/04/10 13:45:21;;;;;;;10.23;7.07;;;18.70;99.90;;;;;;4920688;29;20235;-94
2023/04/10 13:47:50;;;;;;;11.00;8.85;;;18.70;99.90;;;;;;4920839;29;20293;-95
2023/04/10 13:50:17;;;;;;;8.07;7.05;;;18.80;99.90;;;;;;4920833;29;20194;-95
2023/04/10 13:52:43;;;;;;;13.88;10.43;;;18.80;99.90;;;;;;4920778;29;20197;-94
2023/04/10 13:55:10;;;;;;;16.65;14.75;;;18.70;99.90;;;;;;4920995;29;20236;-95
2023/04/10 13:57:38;;;;;;;12.35;9.93;;;18.50;99.90;;;;;;4920750;29;20214;-94
2023/04/10 14:00:06;;;;;;;15.60;12.18;;;18.40;99.90;;;;;;4920634;29;20206;-94
2023/04/10 14:02:33;;;;;;;16.63;11.40;;;18.40;99.90;;;;;;4920066;29;20573;-94
2023/04/10 14:05:01;;;;;;;20.58;15.60;;;18.50;99.90;;;;;;4920737;29;20229;-94
2023/04/10 14:07:28;;;;;;;18.58;14.85;;;18.40;99.90;;;;;;4920678;29;20193;-94
2023/04/10 14:09:55;;;;;;;20.05;14.20;;;18.20;99.90;;;;;;4920932;29;20216;-93
2023/04/10 14:12:23;;;;;;;20.88;15.00;;;18.10;99.90;;;;;;4920813;29;20293;-95
2023/04/10 14:14:50;;;;;;;14.50;11.63;;;17.90;99.90;;;;;;4920616;29;20232;-94
2023/04/10 14:17:17;;;;;;;9.45;7.28;;;17.80;99.90;;;;;;4920033;29;20291;-95
2023/04/10 14:19:45;;;;;;;9.60;6.68;;;17.70;99.90;;;;;;4920417;29;20265;-94
2023/04/10 14:22:13;;;;;;;8.57;7.65;;;17.70;99.90;;;;;;4920815;29;20202;-94
2023/04/10 14:24:40;;;;;;;11.23;7.50;;;17.70;99.90;;;;;;4920484;29;20204;-95
2023/04/10 14:27:06;;;;;;;10.30;8.38;;;17.70;99.90;;;;;;4920395;29;20201;-95
2023/04/10 14:29:33;;;;;;;11.48;9.48;;;17.70;99.90;;;;;;4915149;29;20201;-94
2023/04/10 14:32:00;;;;;;;8.93;6.72;;;17.90;99.90;;;;;;4905333;29;20587;-94
2023/04/10 14:34:27;;;;;;;8.18;6.90;;;18.20;99.90;;;;;;4920309;29;20221;-95
2023/04/10 14:36:54;;;;;;;8.85;6.88;;;18.40;99.90;;;;;;4920010;29;20204;-95
2023/04/10 14:39:23;;;;;;;7.30;5.40;;;18.50;99.90;;;;;;4919634;29;20194;-95
2023/04/10 14:41:50;;;;;;;6.30;5.47;;;18.60;99.90;;;;;;4920082;29;20261;-94
2023/04/10 14:44:17;;;;;;;8.63;6.82;;;18.60;99.90;;;;;;4920324;29;20209;-95
2023/04/10 14:46:44;;;;;;;12.43;9.38;;;18.60;99.90;;;;;;4919591;29;20666;-93
2023/04/10 14:49:12;;;;;;;15.68;11.30;;;18.50;99.90;;;;;;4919472;29;20202;-95
2023/04/10 14:51:39;;;;;;;11.20;8.60;;;18.40;99.90;;;;;;4920361;29;20209;-95
2023/04/10 14:54:06;;;;;;;13.18;10.40;;;18.40;99.90;;;;;;4919735;29;20221;-96
2023/04/10 14:56:34;;;;;;;13.07;10.68;;;18.30;99.90;;;;;;4919946;29;20213;-94
2023/04/10 14:59:01;;;;;;;12.85;10.20;;;18.30;99.90;;;;;;4919578;29;20207;-95
2023/04/10 15:01:28;;;;;;;10.57;8.82;;;18.20;99.90;;;;;;4919644;29;20585;-95
2023/04/10 15:03:55;;;;;;;14.23;11.18;;;18.10;99.90;;;;;;4919680;29;20240;-94
2023/04/10 15:06:21;;;;;;;12.13;9.57;;;18.10;99.90;;;;;;4906609;29;20217;-94
2023/04/10 15:08:48;;;;;;;9.50;7.78;;;18.00;99.90;;;;;;4901098;29;20293;-94
2023/04/10 15:11:15;;;;;;;11.80;8.80;;;18.00;99.90;;;;;;4900179;29;20198;-94
2023/04/10 15:13:43;;;;;;;6.90;5.53;;;17.90;99.90;;;;;;4900229;29;20667;-94
2023/04/10 15:16:11;;;;;;;12.25;8.68;;;17.80;99.90;;;;;;4900784;29;20291;-95
2023/04/10 15:18:38;;;;;;;9.65;6.10;;;17.50;99.90;;;;;;4900678;29;20202;-95
2023/04/10 15:21:05;;;;;;;19.67;13.98;;;17.40;99.90;;;;;;4900245;29;20888;-96
2023/04/10 15:23:32;;;;;;;19.10;13.68;;;17.30;99.90;;;;;;4907882;29;20205;-95
2023/04/10 15:25:59;;;;;;;26.13;19.35;;;17.30;99.90;;;;;;4919660;29;20198;-95
2023/04/10 15:28:26;;;;;;;24.88;18.15;;;17.30;99.90;;;;;;4918937;29;20237;-96
2023/04/10 15:30:56;;;;;;;10.60;8.27;;;17.30;99.90;;;;;;4918710;29;20206;-94
2023/04/10 15:33:23;;;;;;;27.27;16.77;;;17.30;99.90;;;;;;4919253;29;20201;-95
2023/04/10 15:35:50;;;;;;;39.67;25.50;;;17.30;99.90;;;;;;4919308;29;20213;-94
2023/04/10 15:38:17;;;;;;;19.58;13.70;;;17.30;99.90;;;;;;4918768;29;20202;-94
2023/04/10 15:40:43;;;;;;;19.45;15.13;;;17.30;99.90;;;;;;4919263;29;20204;-95
2023/04/10 15:43:11;;;;;;;19.02;14.15;;;17.30;99.90;;;;;;4918669;29;20202;-95
2023/04/10 15:45:38;;;;;;;11.57;8.70;;;17.30;99.90;;;;;;4910036;29;20198;-94
2023/04/10 15:48:06;;;;;;;8.85;6.72;;;17.30;99.90;;;;;;4912546;29;20232;-95
2023/04/10 15:50:33;;;;;;;13.18;8.07;;;17.30;99.90;;;;;;4918513;29;20297;-96
2023/04/10 15:53:00;;;;;;;7.40;6.13;;;17.30;99.90;;;;;;4900045;29;20574;-95
2023/04/10 15:55:27;;;;;;;9.07;6.47;;;17.30;99.90;;;;;;4899803;29;20227;-95
2023/04/10 15:57:54;;;;;;;10.38;8.32;;;17.20;99.90;;;;;;4899630;29;20210;-95
2023/04/10 16:00:21;;;;;;;12.75;9.25;;;17.10;99.90;;;;;;4913187;29;20201;-94
2023/04/10 16:02:47;;;;;;;13.90;11.20;;;17.10;99.90;;;;;;4916467;29;20205;-96
2023/04/10 16:05:16;;;;;;;13.32;11.93;;;17.00;99.90;;;;;;4899917;29;20236;-96
2023/04/10 16:07:42;;;;;;;10.27;8.63;;;16.90;99.90;;;;;;4900652;29;20659;-95
2023/04/10 16:10:10;;;;;;;10.95;9.35;;;16.90;99.90;;;;;;4899710;29;20213;-95
2023/04/10 16:12:37;;;;;;;11.77;8.60;;;16.80;99.90;;;;;;4899478;29;20206;-95
2023/04/10 16:15:04;;;;;;;13.52;9.90;;;16.70;99.90;;;;;;4912031;29;20217;-95
2023/04/10 16:17:31;;;;;;;13.63;10.60;;;16.60;99.90;;;;;;4918544;29;20666;-95
2023/04/10 16:19:58;;;;;;;23.83;16.05;;;16.50;99.90;;;;;;4918601;29;20202;-95
2023/04/10 16:22:27;;;;;;;13.20;10.13;;;16.50;99.90;;;;;;4918733;29;20201;-95
2023/04/10 16:24:56;;;;;;;9.10;8.05;;;16.40;99.90;;;;;;4899699;29;20194;-95
2023/04/10 16:27:23;;;;;;;11.50;9.60;;;16.20;99.90;;;;;;4914079;29;20210;-94
2023/04/10 16:29:49;;;;;;;13.30;11.25;;;16.20;99.90;;;;;;4918318;29;20655;-95
2023/04/10 16:32:18;;;;;;;13.95;12.50;;;16.10;99.90;;;;;;4918301;29;20677;-96
2023/04/10 16:34:46;;;;;;;12.98;11.10;;;16.10;99.90;;;;;;4918605;29;20325;-95
2023/04/10 16:37:13;;;;;;;22.45;17.20;;;16.10;99.90;;;;;;4904859;29;20204;-95
2023/04/10 16:39:41;;;;;;;14.75;12.35;;;16.10;99.90;;;;;;4899563;29;20662;-96
2023/04/10 16:42:08;;;;;;;11.23;9.80;;;16.00;99.90;;;;;;4899297;29;20284;-95
2023/04/10 16:44:35;;;;;;;16.85;13.52;;;16.00;99.90;;;;;;4899377;29;20200;-95
2023/04/10 16:47:02;;;;;;;11.85;9.85;;;16.00;99.90;;;;;;4899469;29;20210;-95
2023/04/10 16:49:29;;;;;;;12.25;9.82;;;15.90;99.90;;;;;;4899397;29;20207;-94
2023/04/10 16:51:56;;;;;;;14.82;10.43;;;15.90;99.90;;;;;;4899202;29;20201;-94
2023/04/10 16:54:22;;;;;;;18.05;12.43;;;15.80;99.90;;;;;;4899483;29;20212;-93
2023/04/10 16:56:50;;;;;;;15.43;10.68;;;15.70;99.90;;;;;;4909711;29;20204;-95
2023/04/10 16:59:17;;;;;;;16.02;12.13;;;15.60;99.90;;;;;;4918112;29;20211;-93
2023/04/10 17:01:44;;;;;;;14.80;11.68;;;15.40;99.90;;;;;;4917963;29;20664;-94
2023/04/10 17:04:12;;;;;;;15.88;11.93;;;15.30;99.90;;;;;;4898992;29;20376;-95
2023/04/10 17:06:38;;;;;;;19.23;13.50;;;15.20;99.90;;;;;;4899492;29;20296;-94
2023/04/10 17:09:05;;;;;;;17.92;12.85;;;15.10;99.90;;;;;;4899035;29;20238;-93
2023/04/10 17:11:32;;;;;;;18.40;14.40;;;15.00;99.90;;;;;;4905563;29;20578;-94
2023/04/10 17:14:00;;;;;;;14.90;11.63;;;14.90;99.90;;;;;;4902977;29;20204;-93
2023/04/10 17:16:27;;;;;;;18.38;13.57;;;14.70;99.90;;;;;;4902848;29;20224;-94
2023/04/10 17:18:54;;;;;;;19.70;14.57;;;14.60;99.90;;;;;;4902565;29;20292;-94
2023/04/10 17:21:20;;;;;;;19.55;14.40;;;14.50;99.90;;;;;;4915093;29;20573;-93
2023/04/10 17:23:47;;;;;;;20.42;14.98;;;14.40;99.90;;;;;;4921536;29;20204;-93
2023/04/10 17:26:15;;;;;;;19.20;14.00;;;14.20;99.90;;;;;;4921179;29;20241;-94
2023/04/10 17:28:43;;;;;;;23.27;16.27;;;14.10;99.90;;;;;;4921407;29;20218;-94
2023/04/10 17:31:12;;;;;;;28.13;18.77;;;13.90;99.90;;;;;;4921362;29;20211;-94
2023/04/10 17:33:40;;;;;;;40.00;26.10;;;13.80;99.90;;;;;;4921170;29;20219;-93
2023/04/10 17:36:08;;;;;;;38.70;25.23;;;13.70;99.90;;;;;;4921349;29;20263;-93
2023/04/10 17:38:36;;;;;;;32.50;22.27;;;13.50;99.90;;;;;;4920975;29;20240;-93
2023/04/10 17:41:04;;;;;;;23.87;17.10;;;13.40;99.90;;;;;;4921441;29;20204;-93
2023/04/10 17:43:30;;;;;;;17.77;13.10;;;13.20;99.90;;;;;;4920928;29;20207;-94
2023/04/10 17:45:57;;;;;;;16.63;11.77;;;13.10;99.90;;;;;;4902480;29;20205;-92
2023/04/10 17:48:25;;;;;;;15.23;11.30;;;12.90;99.90;;;;;;4916870;29;20203;-94
2023/04/10 17:50:52;;;;;;;14.50;11.33;;;12.80;99.90;;;;;;4921132;29;20208;-93
2023/04/10 17:53:19;;;;;;;15.80;12.20;;;12.70;99.90;;;;;;4920654;29;20200;-93
2023/04/10 17:55:46;;;;;;;13.47;11.60;;;12.50;99.90;;;;;;4920907;29;20229;-93
2023/04/10 17:58:13;;;;;;;16.00;12.73;;;12.40;99.90;;;;;;4920519;29;20203;-95
2023/04/10 18:00:41;;;;;;;28.57;14.60;;;12.30;99.90;;;;;;4920930;29;20213;-94
2023/04/10 18:03:08;;;;;;;24.63;15.13;;;12.10;99.90;;;;;;4920742;29;20208;-93
2023/04/10 18:05:38;;;;;;;26.07;17.83;;;12.00;1.00;;;;;;4920453;29;20225;-92
2023/04/10 18:08:05;;;;;;;24.47;18.23;;;11.90;1.00;;;;;;4920764;29;20211;-93
2023/04/10 18:10:32;;;;;;;24.07;15.27;;;11.80;1.00;;;;;;4920257;29;20263;-94
2023/04/10 18:12:58;;;;;;;20.83;14.90;;;11.70;1.00;;;;;;4912931;29;20205;-94
2023/04/10 18:15:25;;;;;;;19.30;14.00;;;11.70;1.00;;;;;;4920351;29;20698;-94
2023/04/10 18:17:52;;;;;;;16.90;11.97;;;11.60;1.00;;;;;;4920545;29;20238;-93
2023/04/10 18:20:19;;;;;;;22.03;13.53;;;11.50;1.00;;;;;;4920715;29;20211;-93
2023/04/10 18:22:48;;;;;;;24.23;14.53;;;11.40;1.00;;;;;;4920007;29;20201;-94
2023/04/10 18:25:15;;;;;;;24.37;14.47;;;11.40;1.00;;;;;;4919933;29;20208;-93
2023/04/10 18:27:42;;;;;;;21.43;13.70;;;11.30;1.00;;;;;;4920005;29;20672;-92
2023/04/10 18:30:09;;;;;;;17.87;13.10;;;11.20;1.00;;;;;;4920302;29;20231;-92
2023/04/10 18:32:36;;;;;;;17.43;13.67;;;11.20;1.00;;;;;;4920827;29;20569;-92
2023/04/10 18:35:03;;;;;;;20.37;14.03;;;11.10;1.00;;;;;;4920093;29;20225;-92
2023/04/10 18:37:30;;;;;;;19.97;14.90;;;11.00;1.00;;;;;;4920023;29;20199;-91
2023/04/10 18:39:58;;;;;;;20.43;15.07;;;11.00;1.00;;;;;;4919882;29;20295;-92
2023/04/10 18:42:26;;;;;;;26.93;15.77;;;10.90;24.30;;;;;;4919890;29;20209;-92
2023/04/10 18:44:53;;;;;;;26.90;15.70;;;10.90;77.30;;;;;;4919581;29;20206;-92